Roans Prairie, Texas
Current Conditions -  °F | °C
As of 11:53 AM on Monday 26 Jan 2015 (Local Time) from KUTS Reporting Station
Clear Clear  
Wind Chill: 60°   Ceiling: Unl
Heat Index: 60°   Visibility: 10mi
Dew Point: 34°   Wind: 5mph
Humidity: 38%   Direction: 290°WNW
Pressure: 30.23"   Gusts: NA
Location:  30.58°N, 95.94°W
Report Text: KUTS 261753Z AUTO 29004KT 10SM CLR 16/01 A3023 RMK AO2 SLP233 T01560011 10167 20039 58005
Loading
Personal Weather Stations






























Interactive Weather Map New forecast layout! Learn more

10-Day Weather Forecast

Advertisements
Track Severe Weather on mobile